createdAt,value
2018-03-01T11:20:47.869Z,22.8
2018-03-01T11:21:48.502Z,22.8
2018-03-01T11:22:49.136Z,22.9
2018-03-01T11:23:49.771Z,22.8
2018-03-01T11:24:50.509Z,22.9
2018-03-01T11:25:51.148Z,22.9
2018-03-01T11:26:51.787Z,23.1
2018-03-01T11:27:52.527Z,23.2
2018-03-01T11:28:53.168Z,23.1
2018-03-01T11:29:53.809Z,23.2
2018-03-01T11:30:54.448Z,23.2
2018-03-01T11:31:55.191Z,23.4
2018-03-01T11:32:26.572Z,23.4
2018-03-01T11:33:27.313Z,23.5
2018-03-01T11:34:27.954Z,23.5
2018-03-01T11:35:28.596Z,23.5
2018-03-01T11:36:29.246Z,23.7
2018-03-01T11:37:29.885Z,23.7
2018-03-01T11:38:30.530Z,23.7
2018-03-01T11:39:31.172Z,23.8
2018-03-01T11:40:31.813Z,23.9
2018-03-01T11:41:32.455Z,23.9
2018-03-01T11:42:33.098Z,23.9
2018-03-01T11:43:33.742Z,24.0
2018-03-01T11:44:34.382Z,24.0
2018-03-01T11:45:35.025Z,24.1
2018-03-01T11:46:35.667Z,24.1
2018-03-01T11:47:36.473Z,24.1
2018-03-01T11:48:37.063Z,24.1
2018-03-01T11:49:37.899Z,24.3
2018-03-01T11:50:38.541Z,24.2
2018-03-01T11:51:39.187Z,24.3
2018-03-01T11:52:39.835Z,24.3
2018-03-01T11:53:40.676Z,24.4
2018-03-01T11:54:41.320Z,24.4
2018-03-01T11:55:41.963Z,24.5
2018-03-01T11:56:42.905Z,24.6
2018-03-01T11:57:43.649Z,24.5
2018-03-01T11:58:44.291Z,24.6
2018-03-01T11:59:44.936Z,24.7
2018-03-01T12:00:45.578Z,24.6
2018-03-01T12:01:46.474Z,24.7
2018-03-01T12:02:47.118Z,24.7
2018-03-01T12:03:47.964Z,24.7
2018-03-01T12:04:48.608Z,24.7
2018-03-01T12:05:49.253Z,24.8
2018-03-01T12:06:49.896Z,24.8
2018-03-01T12:07:50.542Z,24.7
2018-03-01T12:08:51.184Z,24.8
2018-03-01T12:09:51.927Z,24.9
2018-03-01T12:10:52.771Z,24.9
2018-03-01T12:11:53.614Z,24.9
2018-03-01T12:12:54.255Z,24.9
2018-03-01T12:13:54.999Z,24.9
2018-03-01T12:14:55.744Z,24.9
2018-03-01T12:15:56.386Z,25.0
2018-03-01T12:16:57.030Z,24.9
2018-03-01T12:17:57.773Z,24.9
2018-03-01T12:18:58.525Z,25.0
2018-03-01T12:19:59.160Z,25.0
2018-03-01T12:20:59.803Z,25.1
2018-03-01T12:22:00.452Z,25.0
2018-03-01T12:23:01.190Z,25.0
2018-03-01T12:24:01.933Z,25.0
2018-03-01T12:25:02.576Z,25.0
2018-03-01T12:26:03.219Z,25.0
2018-03-01T12:27:03.865Z,25.0
2018-03-01T12:28:04.605Z,25.0
2018-03-01T12:29:05.249Z,25.0
2018-03-01T12:30:05.994Z,25.0
2018-03-01T12:31:06.639Z,25.1
2018-03-01T12:32:07.337Z,25.0
2018-03-01T12:33:08.079Z,25.0
2018-03-01T12:34:08.725Z,25.0
2018-03-01T12:35:09.369Z,25.0
2018-03-01T12:36:10.016Z,25.1
2018-03-01T12:37:10.659Z,25.2
2018-03-01T12:38:11.304Z,25.2
2018-03-01T12:39:11.948Z,25.2
2018-03-01T12:40:12.698Z,25.1
2018-03-01T12:41:13.338Z,25.0
2018-03-01T12:42:14.283Z,25.2
2018-03-01T12:43:14.927Z,25.1
2018-03-01T12:44:15.570Z,25.1
2018-03-01T12:45:16.213Z,25.1
2018-03-01T12:46:16.858Z,25.1
2018-03-01T12:47:17.520Z,25.1
2018-03-01T12:48:18.143Z,25.2
2018-03-01T12:49:18.787Z,25.2
2018-03-01T12:50:19.430Z,25.2
2018-03-01T12:51:20.173Z,25.2
2018-03-01T12:52:20.881Z,25.2
2018-03-01T12:53:21.526Z,25.2
2018-03-01T12:54:22.169Z,25.2
2018-03-01T12:55:22.815Z,25.2
2018-03-01T12:56:23.460Z,25.2
2018-03-01T12:57:24.206Z,25.2
2018-03-01T12:58:24.854Z,25.3
2018-03-01T12:59:25.794Z,25.2
2018-03-01T13:00:26.438Z,25.3
2018-03-01T13:01:27.235Z,25.3
2018-03-01T13:02:27.878Z,25.4
2018-03-01T13:03:28.676Z,25.4
2018-03-01T13:04:29.315Z,25.3
2018-03-01T13:05:29.966Z,25.4
2018-03-01T13:06:30.606Z,25.4
2018-03-01T13:07:31.247Z,25.4
2018-03-01T13:08:31.893Z,25.3
2018-03-01T13:09:32.888Z,25.4
2018-03-01T13:10:33.631Z,25.4
2018-03-01T13:11:34.376Z,25.4
2018-03-01T13:12:35.123Z,25.5
2018-03-01T13:13:35.923Z,25.4
2018-03-01T13:14:36.719Z,25.5
2018-03-01T13:15:37.370Z,25.5
2018-03-01T13:16:38.008Z,25.5
2018-03-01T13:17:38.655Z,25.5
2018-03-01T13:18:39.400Z,25.5
2018-03-01T13:19:40.049Z,25.5
2018-03-01T13:20:40.797Z,25.5
2018-03-01T13:21:41.542Z,25.5
2018-03-01T13:22:42.185Z,25.5
2018-03-01T13:23:42.829Z,25.5
2018-03-01T13:24:43.474Z,25.5
2018-03-01T13:25:44.118Z,25.5
2018-03-01T13:26:44.919Z,25.5
2018-03-01T13:27:45.663Z,25.5
2018-03-01T13:28:46.406Z,25.5
2018-03-01T13:29:47.050Z,25.6
2018-03-01T13:30:47.694Z,25.5
2018-03-01T13:31:48.346Z,25.5
2018-03-01T13:32:49.093Z,25.5
2018-03-01T13:33:49.736Z,25.5
2018-03-01T13:34:50.382Z,25.5
2018-03-01T13:35:51.030Z,25.5
2018-03-01T13:36:51.681Z,25.5
2018-03-01T13:37:52.328Z,25.5
2018-03-01T13:38:52.971Z,25.5
2018-03-01T13:39:53.617Z,25.5
2018-03-01T13:40:54.261Z,25.5
2018-03-01T13:41:54.907Z,25.6
2018-03-01T13:42:55.551Z,25.5
2018-03-01T13:43:56.195Z,25.5
2018-03-01T13:44:56.845Z,25.5
2018-03-01T13:45:57.486Z,25.4
2018-03-01T13:46:58.130Z,25.5
2018-03-01T13:47:58.776Z,25.4
2018-03-01T13:48:59.520Z,25.5
2018-03-01T13:50:00.165Z,25.4
2018-03-01T13:51:00.810Z,25.4
2018-03-01T13:52:01.453Z,25.5
2018-03-01T13:53:02.096Z,25.5
2018-03-01T13:54:02.739Z,25.5
2018-03-01T13:55:03.383Z,25.5
2018-03-01T13:56:04.028Z,25.5
2018-03-01T13:57:04.673Z,25.5
2018-03-01T13:58:05.417Z,25.5
2018-03-01T13:59:06.064Z,25.5
2018-03-01T14:00:06.710Z,25.5
2018-03-01T14:01:07.557Z,25.5
2018-03-01T14:02:08.203Z,25.5
2018-03-01T14:03:08.852Z,25.5
2018-03-01T14:04:09.597Z,25.5
2018-03-01T14:05:10.241Z,25.5
2018-03-01T14:06:10.884Z,25.5
2018-03-01T14:07:11.628Z,25.5
2018-03-01T14:08:12.273Z,25.5
2018-03-01T14:09:12.918Z,25.6
2018-03-01T14:10:13.664Z,25.5
2018-03-01T14:11:14.309Z,25.6
2018-03-01T14:12:14.995Z,25.5
2018-03-01T14:13:15.740Z,25.6
2018-03-01T14:14:16.534Z,25.6
2018-03-01T14:15:17.178Z,25.6
2018-03-01T14:16:17.822Z,25.7
2018-03-01T14:17:18.465Z,25.7
2018-03-01T14:18:19.262Z,25.6
2018-03-01T14:19:20.007Z,25.7
2018-03-01T14:20:20.650Z,25.7
2018-03-01T14:21:21.295Z,25.7
2018-03-01T14:22:21.939Z,25.7
2018-03-01T14:23:22.682Z,25.7
2018-03-01T14:24:23.327Z,25.7
2018-03-01T14:25:24.072Z,25.7
2018-03-01T14:26:24.715Z,25.9
2018-03-01T14:27:25.461Z,25.8
2018-03-01T14:28:26.255Z,25.7
2018-03-01T14:29:26.899Z,25.8
2018-03-01T14:30:27.543Z,25.7
2018-03-01T14:31:28.187Z,25.8
2018-03-01T14:32:28.832Z,25.9
2018-03-01T14:33:29.575Z,25.8
2018-03-01T14:34:30.219Z,25.9
2018-03-01T14:35:30.866Z,25.9
2018-03-01T14:36:31.511Z,25.9
2018-03-01T14:37:32.160Z,25.9
2018-03-01T14:38:32.801Z,25.8
2018-03-01T14:39:33.448Z,25.9
2018-03-01T14:40:34.093Z,25.9
2018-03-01T14:41:34.739Z,25.9
2018-03-01T14:42:35.384Z,25.9
2018-03-01T14:43:36.030Z,25.9
2018-03-01T14:44:36.674Z,26.0
2018-03-01T14:45:37.421Z,25.9
2018-03-01T14:46:38.368Z,25.9
2018-03-01T14:47:39.009Z,25.9
2018-03-01T14:48:39.652Z,25.9
2018-03-01T14:49:40.297Z,25.9
2018-03-01T14:50:40.941Z,25.9
2018-03-01T14:51:41.585Z,25.9
2018-03-01T14:52:42.580Z,26.0
2018-03-01T14:53:43.224Z,25.9
2018-03-01T14:54:43.869Z,25.9
2018-03-01T14:55:44.614Z,25.9
2018-03-01T14:56:45.259Z,25.9
2018-03-01T14:57:46.053Z,25.9
2018-03-01T14:58:46.696Z,25.9
2018-03-01T14:59:47.343Z,25.9
2018-03-01T15:00:47.987Z,25.9
2018-03-01T15:01:48.738Z,25.9
2018-03-01T15:02:49.378Z,26.1
2018-03-01T15:03:50.025Z,26.0
2018-03-01T15:04:50.771Z,26.0
2018-03-01T15:05:51.416Z,25.9
2018-03-01T15:06:52.060Z,26.0
2018-03-01T15:07:52.703Z,26.0
2018-03-01T15:08:53.447Z,26.0
2018-03-01T15:09:54.300Z,25.9
2018-03-01T15:10:55.047Z,26.0
2018-03-01T15:11:55.690Z,25.9
2018-03-01T15:12:56.435Z,26.0
2018-03-01T15:13:57.333Z,25.9
2018-03-01T15:14:57.975Z,26.1
2018-03-01T15:15:58.623Z,26.0
2018-03-01T15:16:59.264Z,26.0
2018-03-01T15:17:59.906Z,26.0
2018-03-01T15:19:00.650Z,26.0
2018-03-01T15:20:01.294Z,26.0
2018-03-01T15:21:01.941Z,25.9
2018-03-01T15:22:02.591Z,26.0
2018-03-01T15:23:03.236Z,26.0
2018-03-01T15:24:03.880Z,26.0
2018-03-01T15:25:04.626Z,26.0
2018-03-01T15:26:05.274Z,26.0
2018-03-01T15:27:06.021Z,25.9
2018-03-01T15:28:06.829Z,25.9
2018-03-01T15:29:07.406Z,25.9
2018-03-01T15:30:08.050Z,26.0
2018-03-01T15:31:08.696Z,25.9
2018-03-01T15:32:09.396Z,26.0
2018-03-01T15:33:10.141Z,26.0
2018-03-01T15:34:10.784Z,25.9
2018-03-01T15:35:11.429Z,26.0
2018-03-01T15:36:12.324Z,26.0
2018-03-01T15:37:12.969Z,26.0
2018-03-01T15:38:13.615Z,25.9
2018-03-01T15:39:14.261Z,26.0
2018-03-01T15:40:14.907Z,25.9
2018-03-01T15:41:15.649Z,25.9
2018-03-01T15:42:16.293Z,25.9
2018-03-01T15:43:16.935Z,25.9
2018-03-01T15:44:17.830Z,25.9
2018-03-01T15:45:18.474Z,25.9
2018-03-01T15:46:19.128Z,26.0
2018-03-01T15:47:19.770Z,25.9
2018-03-01T15:48:20.415Z,25.9
2018-03-01T15:49:21.059Z,25.9
2018-03-01T15:50:21.705Z,26.0
2018-03-01T15:51:22.348Z,25.9
2018-03-01T15:52:23.007Z,25.9
2018-03-01T15:53:23.645Z,25.8
2018-03-01T15:54:24.312Z,25.9
2018-03-01T15:55:24.985Z,25.9
2018-03-01T15:56:25.591Z,25.8
2018-03-01T15:57:26.538Z,25.8
2018-03-01T15:58:27.181Z,25.8
2018-03-01T15:59:28.078Z,25.9
2018-03-01T16:00:28.724Z,25.9
2018-03-01T16:01:29.369Z,25.8
2018-03-01T16:02:30.019Z,25.8
2018-03-01T16:03:30.671Z,25.9
2018-03-01T16:04:31.309Z,25.8
2018-03-01T16:05:32.009Z,25.7
2018-03-01T16:06:32.701Z,25.7
2018-03-01T16:07:33.345Z,25.7
2018-03-01T16:08:33.989Z,25.7
2018-03-01T16:09:35.084Z,25.7
2018-03-01T16:10:35.727Z,25.7
2018-03-01T16:11:36.370Z,25.7
2018-03-01T16:12:37.014Z,25.8
2018-03-01T16:13:37.659Z,25.7
2018-03-01T16:14:38.554Z,25.7
2018-03-01T16:15:39.198Z,25.6
2018-03-01T16:16:39.843Z,25.7
2018-03-01T16:17:40.487Z,25.7
2018-03-01T16:18:41.232Z,25.7
2018-03-01T16:19:41.875Z,25.6
2018-03-01T16:20:42.518Z,25.6
2018-03-01T16:21:43.165Z,25.7
2018-03-01T16:22:43.809Z,25.7
2018-03-01T16:23:44.453Z,25.5
2018-03-01T16:24:45.097Z,25.5
2018-03-01T16:25:45.741Z,25.5
2018-03-01T16:26:46.486Z,25.5
2018-03-01T16:27:47.134Z,25.5
2018-03-01T16:28:47.776Z,25.5
2018-03-01T16:29:48.432Z,25.4
2018-03-01T16:30:49.074Z,25.4
2018-03-01T16:31:49.718Z,25.4
2018-03-01T16:32:50.662Z,25.4
2018-03-01T16:33:51.304Z,25.3
2018-03-01T16:34:51.948Z,25.2
2018-03-01T16:35:52.794Z,25.2
2018-03-01T16:36:53.438Z,25.2
2018-03-01T16:37:54.087Z,25.2
2018-03-01T16:38:54.730Z,25.2
2018-03-01T16:39:55.373Z,25.1
2018-03-01T16:40:56.016Z,25.1
2018-03-01T16:41:57.111Z,25.1
2018-03-01T16:42:57.753Z,25.1
2018-03-01T16:43:58.398Z,24.9
2018-03-01T16:44:59.041Z,25.0
2018-03-01T16:45:59.985Z,24.9
2018-03-01T16:47:00.627Z,25.0
2018-03-01T16:48:01.273Z,24.9
2018-03-01T16:49:01.916Z,24.9
2018-03-01T16:50:02.562Z,24.9
2018-03-01T16:51:03.205Z,24.8
2018-03-01T16:52:03.850Z,24.8
2018-03-01T16:53:04.496Z,24.8
2018-03-01T16:54:05.137Z,24.8
2018-03-01T16:55:05.781Z,24.8
2018-03-01T16:56:06.576Z,24.8
2018-03-01T16:57:07.220Z,24.7
2018-03-01T16:58:07.863Z,24.7
2018-03-01T16:59:08.509Z,24.6
2018-03-01T17:00:09.153Z,24.6
2018-03-01T17:01:10.297Z,24.7
2018-03-01T17:02:10.940Z,24.6
2018-03-01T17:03:11.581Z,24.5
2018-03-01T17:04:12.225Z,24.5
2018-03-01T17:05:12.970Z,24.5
2018-03-01T17:06:13.614Z,24.4
2018-03-01T17:07:14.258Z,24.5
2018-03-01T17:08:14.901Z,24.4
2018-03-01T17:09:15.546Z,24.5
2018-03-01T17:10:16.190Z,24.4
2018-03-01T17:11:16.837Z,24.3
2018-03-01T17:12:18.322Z,24.4
2018-03-01T17:13:19.315Z,24.3
2018-03-01T17:14:19.961Z,24.3
2018-03-01T17:15:20.610Z,24.3
2018-03-01T17:16:21.254Z,24.4
2018-03-01T17:17:21.900Z,24.3
2018-03-01T17:18:22.542Z,24.4
2018-03-01T17:19:23.187Z,24.2
2018-03-01T17:20:23.830Z,24.4
2018-03-01T17:21:24.476Z,24.3
2018-03-01T17:22:25.119Z,24.3
2018-03-01T17:23:25.761Z,24.2
2018-03-01T17:24:26.405Z,24.4
2018-03-01T17:25:27.153Z,24.4
2018-03-01T17:26:27.793Z,24.3
2018-03-01T17:27:28.837Z,24.4
2018-03-01T17:28:29.481Z,24.3
2018-03-01T17:29:30.125Z,24.4
2018-03-01T17:30:30.770Z,24.3
2018-03-01T17:31:31.410Z,24.4
2018-03-01T17:32:32.056Z,24.3
2018-03-01T17:33:32.800Z,24.4
2018-03-01T17:34:33.449Z,24.4
2018-03-01T17:35:34.094Z,24.4
2018-03-01T17:36:34.737Z,24.3
2018-03-01T17:37:35.381Z,24.4
2018-03-01T17:38:36.023Z,24.4
2018-03-01T17:39:37.219Z,24.3
2018-03-01T17:40:37.862Z,24.4
2018-03-01T17:41:38.906Z,24.3
2018-03-01T17:42:39.553Z,24.4
2018-03-01T17:43:40.193Z,24.3
2018-03-01T17:44:40.835Z,24.2
2018-03-01T17:45:41.476Z,24.4
2018-03-01T17:46:42.119Z,24.3
2018-03-01T17:47:42.762Z,24.3
2018-03-01T17:48:43.405Z,24.3
2018-03-01T17:49:44.049Z,24.2
2018-03-01T17:50:44.692Z,24.2
2018-03-01T17:51:45.337Z,24.1
2018-03-01T17:52:45.982Z,24.2
2018-03-01T17:53:46.630Z,24.1
2018-03-01T17:54:47.311Z,24.1
2018-03-01T17:55:47.920Z,24.2
2018-03-01T17:56:48.662Z,24.1
2018-03-01T17:57:49.757Z,24.1
2018-03-01T17:58:50.899Z,24.1
2018-03-01T17:59:51.540Z,24.1
2018-03-01T18:00:52.184Z,24.0
2018-03-01T18:01:52.826Z,24.1
2018-03-01T18:02:53.470Z,24.0
2018-03-01T18:03:54.112Z,24.0
2018-03-01T18:04:54.757Z,24.0
2018-03-01T18:05:55.397Z,24.0
2018-03-01T18:06:56.642Z,24.0
2018-03-01T18:07:57.285Z,23.9
2018-03-01T18:08:57.929Z,24.0
2018-03-01T18:09:59.172Z,23.9
2018-03-01T18:10:59.815Z,23.8
2018-03-01T18:12:00.456Z,23.9
2018-03-01T18:13:01.102Z,24.0
2018-03-01T18:14:01.744Z,23.8
2018-03-01T18:15:02.390Z,23.9
2018-03-01T18:16:03.031Z,23.8
2018-03-01T18:17:03.675Z,23.9
2018-03-01T18:18:04.318Z,23.9
2018-03-01T18:19:05.212Z,23.9
2018-03-01T18:20:05.861Z,23.9
2018-03-01T18:21:06.504Z,23.8
2018-03-01T18:22:07.147Z,23.7
2018-03-01T18:23:07.793Z,23.8
2018-03-01T18:24:08.435Z,23.9
2018-03-01T18:25:09.079Z,23.8
2018-03-01T18:26:09.723Z,23.8
2018-03-01T18:27:10.366Z,23.8
2018-03-01T18:28:11.009Z,23.8
2018-03-01T18:29:11.654Z,23.7
2018-03-01T18:30:12.296Z,23.7
2018-03-01T18:31:12.940Z,23.7
2018-03-01T18:32:13.606Z,23.6
2018-03-01T18:33:14.699Z,23.7
2018-03-01T18:34:15.341Z,23.6
2018-03-01T18:35:15.989Z,23.7
2018-03-01T18:36:17.180Z,23.6
2018-03-01T18:37:18.025Z,23.6
2018-03-01T18:38:18.670Z,23.6
2018-03-01T18:39:19.319Z,23.6
2018-03-01T18:40:19.960Z,23.5
2018-03-01T18:41:20.602Z,23.6
2018-03-01T18:42:21.268Z,23.5
2018-03-01T18:43:21.884Z,23.5
2018-03-01T18:44:22.528Z,23.5
2018-03-01T18:45:23.176Z,23.5
2018-03-01T18:46:23.814Z,23.5
2018-03-01T18:47:24.457Z,23.5
2018-03-01T18:48:25.100Z,23.5
2018-03-01T18:49:25.793Z,23.4
2018-03-01T18:50:26.386Z,23.5
2018-03-01T18:51:27.028Z,23.4
2018-03-01T18:52:27.923Z,23.4
2018-03-01T18:53:28.564Z,23.4
2018-03-01T18:54:29.207Z,23.4
2018-03-01T18:55:29.852Z,23.5
2018-03-01T18:56:30.496Z,23.4
2018-03-01T18:57:31.138Z,23.4
2018-03-01T18:58:31.781Z,23.4
2018-03-01T18:59:32.424Z,23.4
2018-03-01T19:00:33.068Z,23.4
2018-03-01T19:01:33.711Z,23.4
2018-03-01T19:02:34.354Z,23.3
2018-03-01T19:03:34.997Z,23.3
2018-03-01T19:04:35.642Z,23.3
2018-03-01T19:05:36.286Z,23.3
2018-03-01T19:06:36.929Z,23.3
2018-03-01T19:07:37.822Z,23.3
2018-03-01T19:08:38.463Z,23.2
2018-03-01T19:09:39.107Z,23.2
2018-03-01T19:10:39.746Z,23.2
2018-03-01T19:11:40.390Z,23.3
2018-03-01T19:12:41.033Z,23.2
2018-03-01T19:13:41.676Z,23.2
2018-03-01T19:14:42.317Z,23.3
2018-03-01T19:15:42.961Z,23.2
2018-03-01T19:16:43.604Z,23.3
2018-03-01T19:17:44.248Z,23.2
2018-03-01T19:18:44.889Z,23.1
2018-03-01T19:19:45.534Z,23.1
2018-03-01T19:20:46.177Z,23.1
2018-03-01T19:21:46.821Z,23.2
2018-03-01T19:22:47.713Z,23.1
2018-03-01T19:23:48.377Z,23.2
2018-03-01T19:24:49.005Z,23.1
2018-03-01T19:25:49.649Z,23.2
2018-03-01T19:26:50.693Z,23.2
2018-03-01T19:27:51.282Z,23.2
2018-03-01T19:28:51.924Z,23.2
2018-03-01T19:29:52.567Z,23.1
2018-03-01T19:30:53.214Z,23.1
2018-03-01T19:31:53.856Z,23.1
2018-03-01T19:32:54.948Z,23.1
2018-03-01T19:33:55.593Z,23.1
2018-03-01T19:34:56.438Z,23.1
2018-03-01T19:35:57.075Z,23.1
2018-03-01T19:36:57.720Z,23.1
2018-03-01T19:37:58.362Z,23.1
2018-03-01T19:38:59.013Z,23.0
2018-03-01T19:39:59.655Z,23.1
2018-03-01T19:41:00.297Z,23.0
2018-03-01T19:42:00.940Z,23.0
2018-03-01T19:43:01.587Z,23.0
2018-03-01T19:44:02.224Z,23.0
2018-03-01T19:45:02.868Z,23.0
2018-03-01T19:46:03.512Z,23.0
2018-03-01T19:47:04.154Z,22.9
2018-03-01T19:48:04.798Z,22.9
2018-03-01T19:49:05.439Z,23.0
2018-03-01T19:50:06.333Z,22.9
2018-03-01T19:51:06.975Z,23.0
2018-03-01T19:52:07.668Z,22.9
2018-03-01T19:53:08.315Z,22.9
2018-03-01T19:54:08.953Z,22.9
2018-03-01T19:55:09.597Z,22.9
2018-03-01T19:56:10.285Z,22.9
2018-03-01T19:57:10.882Z,22.9
2018-03-01T19:58:11.526Z,22.9
2018-03-01T19:59:12.210Z,22.9
2018-03-01T20:00:12.819Z,22.9
2018-03-01T20:01:13.461Z,22.9
2018-03-01T20:02:14.103Z,22.9
2018-03-01T20:03:14.745Z,22.9
2018-03-01T20:04:15.387Z,22.9
2018-03-01T20:05:16.132Z,22.9
2018-03-01T20:06:16.775Z,22.8
2018-03-01T20:07:17.417Z,22.9
2018-03-01T20:08:18.063Z,22.8
2018-03-01T20:09:18.705Z,22.8
2018-03-01T20:10:19.348Z,22.8
2018-03-01T20:11:19.991Z,22.8
2018-03-01T20:12:20.633Z,22.8
2018-03-01T20:13:21.280Z,22.8
2018-03-01T20:14:21.919Z,22.9
2018-03-01T20:15:22.563Z,22.8
2018-03-01T20:16:23.205Z,22.8
2018-03-01T20:17:23.847Z,22.8
2018-03-01T20:18:24.533Z,22.7
2018-03-01T20:19:25.134Z,22.8
2018-03-01T20:20:26.028Z,22.8
2018-03-01T20:21:26.671Z,22.7
2018-03-01T20:22:27.345Z,22.8
2018-03-01T20:23:27.957Z,22.7
2018-03-01T20:24:28.599Z,22.8
2018-03-01T20:25:29.242Z,22.8
2018-03-01T20:26:29.886Z,22.7
2018-03-01T20:27:30.529Z,22.7
2018-03-01T20:28:31.173Z,22.7
2018-03-01T20:29:31.814Z,22.8
2018-03-01T20:30:32.457Z,22.7
2018-03-01T20:31:33.100Z,22.7
2018-03-01T20:32:34.293Z,22.8
2018-03-01T20:33:34.934Z,22.7
2018-03-01T20:34:35.576Z,22.7
2018-03-01T20:35:36.275Z,22.7
2018-03-01T20:36:36.856Z,22.7
2018-03-01T20:37:37.500Z,22.6
2018-03-01T20:38:38.146Z,22.6
2018-03-01T20:39:38.783Z,22.7
2018-03-01T20:40:39.424Z,22.6
2018-03-01T20:41:40.068Z,22.7
2018-03-01T20:42:40.708Z,22.7
2018-03-01T20:43:41.352Z,22.7
2018-03-01T20:44:41.993Z,22.6
2018-03-01T20:45:42.637Z,22.6
2018-03-01T20:46:43.277Z,22.7
2018-03-01T20:47:44.068Z,22.7
2018-03-01T20:48:44.722Z,22.7
2018-03-01T20:49:45.304Z,22.7
2018-03-01T20:50:45.946Z,22.6
2018-03-01T20:51:46.595Z,22.6
2018-03-01T20:52:47.238Z,22.6
2018-03-01T20:53:47.880Z,22.6
2018-03-01T20:54:48.524Z,22.6
2018-03-01T20:55:49.170Z,22.6
2018-03-01T20:56:49.811Z,22.5
2018-03-01T20:57:50.453Z,22.5
2018-03-01T20:58:51.095Z,22.5
2018-03-01T20:59:51.740Z,22.4
2018-03-01T21:00:52.380Z,22.5
2018-03-01T21:01:53.026Z,22.5
2018-03-01T21:02:53.766Z,22.4
2018-03-01T21:03:54.406Z,22.5
2018-03-01T21:04:55.048Z,22.4
2018-03-01T21:05:55.691Z,22.4
2018-03-01T21:06:56.330Z,22.5
2018-03-01T21:07:56.970Z,22.5
2018-03-01T21:08:57.612Z,22.5
2018-03-01T21:09:58.253Z,22.5
2018-03-01T21:10:58.900Z,22.5
2018-03-01T21:11:59.537Z,22.5
2018-03-01T21:13:00.181Z,22.4
2018-03-01T21:14:00.822Z,22.4
2018-03-01T21:15:01.466Z,22.5
2018-03-01T21:16:02.107Z,22.5
2018-03-01T21:17:02.751Z,22.5
2018-03-01T21:18:03.492Z,22.5
2018-03-01T21:19:04.136Z,22.4
2018-03-01T21:20:04.776Z,22.4
2018-03-01T21:21:05.418Z,22.4
2018-03-01T21:22:06.061Z,22.5
2018-03-01T21:23:06.706Z,22.4
2018-03-01T21:24:07.350Z,22.5
2018-03-01T21:25:07.993Z,22.4
2018-03-01T21:26:08.636Z,22.4
2018-03-01T21:27:09.285Z,22.4
2018-03-01T21:28:09.926Z,22.4
2018-03-01T21:29:10.567Z,22.3
2018-03-01T21:30:11.360Z,22.4
2018-03-01T21:31:12.008Z,22.4
2018-03-01T21:32:12.702Z,22.3
2018-03-01T21:33:13.744Z,22.3
2018-03-01T21:34:14.386Z,22.3
2018-03-01T21:35:15.029Z,22.3
2018-03-01T21:36:15.669Z,22.4
2018-03-01T21:37:16.310Z,22.4
2018-03-01T21:38:16.952Z,22.3
2018-03-01T21:39:17.595Z,22.3
2018-03-01T21:40:18.237Z,22.4
2018-03-01T21:41:18.878Z,22.4
2018-03-01T21:42:19.520Z,22.4
2018-03-01T21:43:20.161Z,22.3
2018-03-01T21:44:20.804Z,22.3
2018-03-01T21:45:21.448Z,22.3
2018-03-01T21:46:22.137Z,22.3
2018-03-01T21:47:22.736Z,22.3
2018-03-01T21:48:23.478Z,22.3
2018-03-01T21:49:24.119Z,22.3
2018-03-01T21:50:24.760Z,22.4
2018-03-01T21:51:25.404Z,22.3
2018-03-01T21:52:26.088Z,22.2
2018-03-01T21:53:26.749Z,22.2
2018-03-01T21:54:27.376Z,22.3
2018-03-01T21:55:28.015Z,22.3
2018-03-01T21:56:28.665Z,22.3
2018-03-01T21:57:29.300Z,22.3
2018-03-01T21:58:29.943Z,22.2
2018-03-01T21:59:30.585Z,22.2
2018-03-01T22:00:31.229Z,22.3
2018-03-01T22:01:31.872Z,22.2
2018-03-01T22:02:32.516Z,22.2
2018-03-01T22:03:33.413Z,22.2
2018-03-01T22:04:34.057Z,22.2
2018-03-01T22:05:34.697Z,22.2
2018-03-01T22:06:35.337Z,22.2
2018-03-01T22:07:35.980Z,22.2
2018-03-01T22:08:36.624Z,22.3
2018-03-01T22:09:37.268Z,22.3
2018-03-01T22:10:37.908Z,22.2
2018-03-01T22:11:38.553Z,22.2
2018-03-01T22:12:39.193Z,22.3
2018-03-01T22:13:39.836Z,22.2
2018-03-01T22:14:40.478Z,22.2
2018-03-01T22:15:41.121Z,22.2
2018-03-01T22:16:41.765Z,22.2
2018-03-01T22:17:42.405Z,22.1
2018-03-01T22:18:43.296Z,22.2
2018-03-01T22:19:43.938Z,22.2
2018-03-01T22:20:44.579Z,22.2
2018-03-01T22:21:45.218Z,22.1
2018-03-01T22:22:45.861Z,22.2
2018-03-01T22:23:46.508Z,22.2
2018-03-01T22:24:47.150Z,22.1
2018-03-01T22:25:47.791Z,22.1
2018-03-01T22:26:48.434Z,22.1
2018-03-01T22:27:49.524Z,22.1
2018-03-01T22:28:50.165Z,22.1
2018-03-01T22:29:50.862Z,22.1
2018-03-01T22:30:51.445Z,22.1
2018-03-01T22:31:52.086Z,22.1
2018-03-01T22:32:53.378Z,22.2
2018-03-01T22:33:54.019Z,22.1
2018-03-01T22:34:54.660Z,22.2
2018-03-01T22:35:55.305Z,22.1
2018-03-01T22:36:55.942Z,22.2
2018-03-01T22:37:56.583Z,22.2
2018-03-01T22:38:57.223Z,22.1
2018-03-01T22:39:57.865Z,22.0
2018-03-01T22:40:58.506Z,22.2
2018-03-01T22:41:59.149Z,22.1
2018-03-01T22:42:59.789Z,22.1
2018-03-01T22:44:00.432Z,22.1
2018-03-01T22:45:01.072Z,22.0
2018-03-01T22:46:01.716Z,22.1
2018-03-01T22:47:02.355Z,22.1
2018-03-01T22:48:03.252Z,22.1
2018-03-01T22:49:03.890Z,22.0
2018-03-01T22:50:04.533Z,22.0
2018-03-01T22:51:05.178Z,22.0
2018-03-01T22:52:05.897Z,22.0
2018-03-01T22:53:06.539Z,22.0
2018-03-01T22:54:07.180Z,22.0
2018-03-01T22:55:07.821Z,22.0
2018-03-01T22:56:08.467Z,22.1
2018-03-01T22:57:09.103Z,22.0
2018-03-01T22:58:09.742Z,22.0
2018-03-01T22:59:10.385Z,22.0
2018-03-01T23:00:11.025Z,22.0
2018-03-01T23:01:11.667Z,22.0
2018-03-01T23:02:12.307Z,22.1
2018-03-01T23:03:13.050Z,21.9
2018-03-01T23:04:13.693Z,21.9
2018-03-01T23:05:14.340Z,22.1
2018-03-01T23:06:14.982Z,22.0
2018-03-01T23:07:15.624Z,22.1
2018-03-01T23:08:16.268Z,22.0
2018-03-01T23:09:16.908Z,22.0
2018-03-01T23:10:17.550Z,22.0
2018-03-01T23:11:18.195Z,22.0
2018-03-01T23:12:18.889Z,22.0
2018-03-01T23:13:19.529Z,22.0
2018-03-01T23:14:20.170Z,22.0
2018-03-01T23:15:20.811Z,22.0
2018-03-01T23:16:21.459Z,21.9
2018-03-01T23:17:22.098Z,22.0
2018-03-01T23:18:22.991Z,22.0
2018-03-01T23:19:23.631Z,22.0
2018-03-01T23:20:24.274Z,21.9
2018-03-01T23:21:24.914Z,21.9
2018-03-01T23:22:25.557Z,22.0
2018-03-01T23:23:26.199Z,22.0
2018-03-01T23:24:26.845Z,21.9
2018-03-01T23:25:27.740Z,22.0
2018-03-01T23:26:28.379Z,21.9
2018-03-01T23:27:29.069Z,21.9
2018-03-01T23:28:29.664Z,21.9
2018-03-01T23:29:30.305Z,21.9
2018-03-01T23:30:30.948Z,22.0
2018-03-01T23:31:31.589Z,21.9
2018-03-01T23:32:32.232Z,21.8
2018-03-01T23:33:33.124Z,21.8
2018-03-01T23:34:33.767Z,21.9
2018-03-01T23:35:34.404Z,21.9
2018-03-01T23:36:35.046Z,21.8
2018-03-01T23:37:35.687Z,21.9
2018-03-01T23:38:36.333Z,21.9
2018-03-01T23:39:36.974Z,21.8
2018-03-01T23:40:37.614Z,21.9
2018-03-01T23:41:38.256Z,21.8
2018-03-01T23:42:38.896Z,21.9
2018-03-01T23:43:39.541Z,21.9
2018-03-01T23:44:40.180Z,21.9
2018-03-01T23:45:40.820Z,21.9
2018-03-01T23:46:41.460Z,21.9
2018-03-01T23:47:42.104Z,21.9
2018-03-01T23:48:42.895Z,21.9
2018-03-01T23:49:43.536Z,21.8
2018-03-01T23:50:44.178Z,21.9
2018-03-01T23:51:44.821Z,21.8
2018-03-01T23:52:45.463Z,21.8
2018-03-01T23:53:46.103Z,21.8
2018-03-01T23:54:46.746Z,21.9
2018-03-01T23:55:47.384Z,21.8
2018-03-01T23:56:48.028Z,21.8
2018-03-01T23:57:48.669Z,21.8
2018-03-01T23:58:49.309Z,21.8
2018-03-01T23:59:49.951Z,21.8
